Addison, Pennsylvania
Current Conditions -  °F | °C
As of 12:40 PM on Saturday 22 Nov 2014 (Local Time) from K2G4 Reporting Station
Overcast Overcast  
Wind Chill: 31°   Ceiling: 2000
Heat Index: 39°   Visibility: 10mi
Dew Point: 12°   Wind: 14mph
Humidity: 33%   Direction: 220°SW
Pressure: 30.25"   Gusts: 21mph
Location:  39.75°N, 79.34°W
Report Text: K2G4 221740Z AUTO 22012G18KT 10SM BKN020 BKN026 OVC031 04/M11 A3025 RMK AO1
Loading
Personal Weather Stations






























Interactive Weather Map New forecast layout! Learn more

10-Day Weather Forecast

Advertisements
Track Severe Weather on mobile